createdAt,value
2022-10-31T00:01:19.296Z,76.81
2022-10-31T00:03:46.692Z,76.44
2022-10-31T00:06:13.554Z,77.00
2022-10-31T00:08:40.463Z,77.58
2022-10-31T00:11:11.848Z,76.77
2022-10-31T00:13:39.244Z,76.36
2022-10-31T00:16:14.723Z,76.96
2022-10-31T00:18:41.773Z,76.58
2022-10-31T00:21:08.725Z,76.72
2022-10-31T00:23:35.869Z,76.87
2022-10-31T00:26:04.597Z,77.29
2022-10-31T00:28:33.025Z,76.46
2022-10-31T00:31:06.780Z,77.10
2022-10-31T00:33:38.657Z,76.53
2022-10-31T00:36:08.429Z,76.60
2022-10-31T00:38:35.944Z,76.03
2022-10-31T00:41:03.129Z,76.33
2022-10-31T00:43:30.068Z,76.35
2022-10-31T00:45:57.062Z,76.63
2022-10-31T00:48:25.608Z,76.05
2022-10-31T00:50:53.822Z,76.46
2022-10-31T00:53:21.169Z,76.32
2022-10-31T00:55:48.293Z,75.98
2022-10-31T01:00:57.143Z,75.91
2022-10-31T01:03:30.202Z,76.29
2022-10-31T01:06:08.349Z,76.56
2022-10-31T01:08:36.941Z,76.64
2022-10-31T01:11:16.793Z,76.44
2022-10-31T01:13:44.673Z,76.59
2022-10-31T01:16:15.663Z,76.34
2022-10-31T01:18:42.785Z,76.90
2022-10-31T01:21:13.979Z,76.13
2022-10-31T01:23:41.397Z,75.98
2022-10-31T01:26:16.453Z,76.41
2022-10-31T01:28:53.923Z,75.87
2022-10-31T01:31:24.383Z,75.80
2022-10-31T01:33:52.010Z,76.51
2022-10-31T01:36:22.232Z,77.01
2022-10-31T01:38:53.803Z,75.47
2022-10-31T01:41:25.654Z,75.49
2022-10-31T01:43:57.486Z,76.10
2022-10-31T01:47:08.018Z,76.23
2022-10-31T01:49:44.670Z,75.81
2022-10-31T01:52:47.036Z,75.87
2022-10-31T01:55:46.810Z,76.88
2022-10-31T01:58:24.411Z,76.87
2022-10-31T02:00:58.806Z,76.41
2022-10-31T02:03:29.048Z,75.63
2022-10-31T02:05:58.740Z,75.86
2022-10-31T02:08:31.478Z,75.53
2022-10-31T02:10:59.814Z,75.92
2022-10-31T02:13:28.890Z,76.08
2022-10-31T02:15:59.297Z,76.22
2022-10-31T02:18:30.627Z,75.61
2022-10-31T02:21:32.716Z,76.09
2022-10-31T02:24:18.717Z,76.28
2022-10-31T02:27:28.287Z,76.04
2022-10-31T02:30:11.011Z,76.53
2022-10-31T02:32:55.391Z,76.09
2022-10-31T02:35:59.743Z,75.70
2022-10-31T02:39:23.183Z,76.90
2022-10-31T02:42:05.731Z,76.38
2022-10-31T02:45:08.475Z,75.68
2022-10-31T02:47:38.830Z,76.17
2022-10-31T02:50:12.059Z,76.69
2022-10-31T02:52:40.195Z,75.51
2022-10-31T02:55:25.496Z,76.42
2022-10-31T02:58:15.814Z,76.25
2022-10-31T03:01:01.868Z,76.27
2022-10-31T03:04:00.972Z,76.10
2022-10-31T03:07:22.288Z,76.39
2022-10-31T03:10:01.772Z,76.82
2022-10-31T03:12:56.868Z,76.35
2022-10-31T03:15:30.069Z,76.27
2022-10-31T03:18:26.366Z,75.85
2022-10-31T03:21:05.513Z,76.64
2022-10-31T03:23:35.662Z,76.39
2022-10-31T03:26:07.390Z,76.74
2022-10-31T03:29:15.904Z,77.09
2022-10-31T03:32:08.696Z,76.57
2022-10-31T03:34:39.058Z,76.91
2022-10-31T03:37:11.594Z,76.92
2022-10-31T03:39:42.510Z,77.25
2022-10-31T03:42:17.339Z,77.21
2022-10-31T03:44:57.832Z,77.27
2022-10-31T03:47:25.181Z,77.09
2022-10-31T03:49:52.790Z,77.01
2022-10-31T03:52:38.979Z,77.36
2022-10-31T03:55:19.850Z,77.09
2022-10-31T03:58:01.757Z,76.96
2022-10-31T04:00:31.160Z,77.33
2022-10-31T04:03:38.313Z,77.16
2022-10-31T04:06:12.571Z,77.37
2022-10-31T04:08:55.143Z,76.64
2022-10-31T04:11:27.239Z,76.67
2022-10-31T04:14:13.294Z,76.69
2022-10-31T04:16:44.793Z,77.63
2022-10-31T04:19:13.899Z,76.95
2022-10-31T04:21:41.151Z,77.40
2022-10-31T04:24:08.297Z,77.13
2022-10-31T04:26:35.319Z,78.06
2022-10-31T04:29:02.597Z,77.68
2022-10-31T04:31:29.912Z,77.12
2022-10-31T04:33:57.709Z,77.30
2022-10-31T04:36:24.987Z,78.43
2022-10-31T04:38:53.955Z,77.83
2022-10-31T04:41:38.705Z,77.62
2022-10-31T04:44:14.025Z,77.65
2022-10-31T04:46:40.944Z,77.48
2022-10-31T04:49:09.415Z,78.22
2022-10-31T04:51:37.370Z,78.28
2022-10-31T04:54:04.791Z,78.20
2022-10-31T04:57:03.949Z,77.76
2022-10-31T04:59:32.074Z,77.95
2022-10-31T05:02:00.495Z,78.42
2022-10-31T05:04:42.957Z,77.87
2022-10-31T05:07:10.490Z,77.77
2022-10-31T05:09:37.479Z,77.61
2022-10-31T05:12:05.219Z,78.65
2022-10-31T05:14:50.526Z,77.97
2022-10-31T05:17:40.529Z,78.65
2022-10-31T05:20:46.868Z,78.79
2022-10-31T05:23:25.904Z,78.76
2022-10-31T05:25:52.852Z,78.45
2022-10-31T05:28:19.885Z,78.78
2022-10-31T05:30:46.852Z,78.71
2022-10-31T05:33:16.371Z,78.55
2022-10-31T05:36:09.607Z,78.86
2022-10-31T05:38:48.803Z,79.26
2022-10-31T05:41:26.930Z,79.13
2022-10-31T05:44:02.724Z,78.89
2022-10-31T05:46:32.170Z,78.98
2022-10-31T05:49:18.419Z,79.12
2022-10-31T05:52:04.437Z,78.94
2022-10-31T05:54:40.748Z,78.69
2022-10-31T05:57:07.725Z,78.93
2022-10-31T05:59:35.096Z,79.02
2022-10-31T06:02:03.119Z,79.03
2022-10-31T06:05:05.730Z,79.15
2022-10-31T06:07:36.923Z,79.04
2022-10-31T06:10:07.748Z,78.54
2022-10-31T06:12:41.535Z,79.39
2022-10-31T06:15:23.532Z,78.59
2022-10-31T06:18:06.579Z,79.68
2022-10-31T06:20:37.869Z,79.02
2022-10-31T06:23:12.692Z,79.65
2022-10-31T06:25:41.539Z,79.16
2022-10-31T06:28:09.438Z,79.63
2022-10-31T06:30:58.978Z,80.04
2022-10-31T06:33:26.609Z,79.50
2022-10-31T06:35:57.426Z,78.79
2022-10-31T06:38:27.806Z,79.05
2022-10-31T06:40:55.764Z,80.40
2022-10-31T06:43:25.822Z,79.56
2022-10-31T06:46:14.473Z,79.44
2022-10-31T06:48:56.348Z,80.06
2022-10-31T06:51:36.579Z,80.83
2022-10-31T06:54:04.507Z,80.10
2022-10-31T06:56:31.904Z,80.97
2022-10-31T06:59:00.176Z,80.95
2022-10-31T07:01:56.575Z,80.68
2022-10-31T07:04:25.760Z,81.28
2022-10-31T07:06:53.796Z,81.71
2022-10-31T07:09:21.237Z,81.99
2022-10-31T07:11:48.259Z,82.26
2022-10-31T07:14:15.868Z,82.22
2022-10-31T07:16:43.128Z,82.62
2022-10-31T07:19:13.487Z,82.85
2022-10-31T07:21:40.703Z,83.69
2022-10-31T07:24:08.742Z,83.79
2022-10-31T07:26:46.980Z,83.58
2022-10-31T07:29:14.941Z,84.15
2022-10-31T07:31:41.966Z,84.05
2022-10-31T07:34:14.751Z,84.39
2022-10-31T07:37:00.796Z,84.73
2022-10-31T07:39:28.519Z,84.86
2022-10-31T07:41:55.583Z,84.97
2022-10-31T07:44:22.518Z,86.31
2022-10-31T07:47:08.229Z,85.85
2022-10-31T07:49:53.742Z,86.75
2022-10-31T07:52:39.589Z,86.83
2022-10-31T07:55:39.712Z,86.89
2022-10-31T07:58:15.080Z,87.48
2022-10-31T08:00:45.512Z,86.98
2022-10-31T08:03:18.960Z,87.44
2022-10-31T08:06:04.831Z,88.18
2022-10-31T08:08:37.544Z,88.21
2022-10-31T08:11:06.555Z,88.73
2022-10-31T08:13:33.827Z,88.64
2022-10-31T08:16:05.034Z,88.74
2022-10-31T08:18:38.544Z,88.69
2022-10-31T08:21:07.778Z,88.64
2022-10-31T08:23:35.951Z,88.97
2022-10-31T08:26:03.540Z,89.56
2022-10-31T08:28:31.609Z,89.46
2022-10-31T08:31:00.725Z,89.20
2022-10-31T08:33:40.112Z,89.02
2022-10-31T08:36:25.881Z,89.05
2022-10-31T08:39:01.863Z,88.92
2022-10-31T08:41:30.930Z,88.68
2022-10-31T08:43:59.440Z,88.46
2022-10-31T08:46:26.497Z,88.89
2022-10-31T08:48:54.439Z,88.66
2022-10-31T08:51:21.770Z,88.46
2022-10-31T08:53:52.639Z,88.24
2022-10-31T08:56:38.279Z,88.20
2022-10-31T08:59:15.408Z,87.60
2022-10-31T09:02:08.884Z,87.46
2022-10-31T09:04:36.931Z,87.17
2022-10-31T09:07:20.947Z,87.08
2022-10-31T09:09:48.921Z,86.34
2022-10-31T09:12:17.699Z,86.27
2022-10-31T09:14:56.757Z,86.00
2022-10-31T09:17:30.188Z,86.21
2022-10-31T09:20:16.567Z,86.10
2022-10-31T09:22:47.311Z,86.10
2022-10-31T09:25:14.730Z,85.15
2022-10-31T09:27:45.342Z,84.61
2022-10-31T09:30:13.023Z,84.27
2022-10-31T09:32:41.033Z,84.63
2022-10-31T09:35:09.867Z,84.28
2022-10-31T09:37:37.084Z,84.28
2022-10-31T09:40:05.362Z,83.93
2022-10-31T09:42:59.455Z,83.47
2022-10-31T09:45:40.597Z,83.97
2022-10-31T09:48:35.316Z,82.45
2022-10-31T09:51:51.932Z,82.36
2022-10-31T09:54:33.666Z,82.58
2022-10-31T09:57:03.992Z,82.31
2022-10-31T09:59:40.760Z,81.58
2022-10-31T10:02:21.843Z,81.83
2022-10-31T10:05:05.000Z,81.68
2022-10-31T10:07:36.761Z,81.23
2022-10-31T10:10:41.944Z,80.87
2022-10-31T10:14:19.582Z,79.45
2022-10-31T10:17:15.039Z,79.35
2022-10-31T10:19:57.995Z,79.14
2022-10-31T10:22:55.896Z,78.70
2022-10-31T10:25:25.756Z,79.41
2022-10-31T10:28:08.185Z,78.79
2022-10-31T10:30:51.800Z,78.15
2022-10-31T10:33:42.891Z,77.73
2022-10-31T10:36:29.504Z,78.02
2022-10-31T10:39:05.580Z,77.75
2022-10-31T10:41:34.879Z,77.40
2022-10-31T10:44:02.538Z,76.83
2022-10-31T10:47:02.709Z,77.03
2022-10-31T10:49:41.366Z,76.50
2022-10-31T10:52:35.341Z,74.93
2022-10-31T10:55:34.242Z,75.69
2022-10-31T10:58:11.546Z,75.21
2022-10-31T11:00:47.393Z,74.20
2022-10-31T11:03:15.837Z,74.26
2022-10-31T11:06:02.463Z,74.55
2022-10-31T11:08:32.413Z,73.97
2022-10-31T11:11:17.856Z,73.06
2022-10-31T11:13:48.525Z,73.45
2022-10-31T11:16:27.908Z,72.80
2022-10-31T11:19:07.925Z,72.47
2022-10-31T11:21:35.828Z,72.59
2022-10-31T11:24:17.044Z,72.66
2022-10-31T11:26:47.306Z,72.11
2022-10-31T11:29:27.172Z,71.39
2022-10-31T11:31:57.165Z,70.22
2022-10-31T11:34:37.366Z,69.26
2022-10-31T11:37:18.055Z,69.16
2022-10-31T11:39:54.529Z,69.33
2022-10-31T11:42:29.825Z,69.15
2022-10-31T11:44:57.652Z,69.37
2022-10-31T11:47:30.797Z,68.60
2022-10-31T11:50:02.130Z,68.70
2022-10-31T11:52:32.842Z,67.50
2022-10-31T11:55:18.489Z,66.53
2022-10-31T11:57:49.954Z,66.47
2022-10-31T12:00:50.582Z,65.93
2022-10-31T12:03:23.763Z,65.33
2022-10-31T12:05:56.347Z,65.16
2022-10-31T12:08:29.988Z,65.15
2022-10-31T12:11:51.844Z,65.30
2022-10-31T12:14:56.160Z,65.04
2022-10-31T12:17:27.048Z,64.78
2022-10-31T12:20:18.944Z,65.07
2022-10-31T12:22:54.746Z,64.17
2022-10-31T12:25:56.850Z,64.17
2022-10-31T12:28:58.494Z,63.59
2022-10-31T12:31:40.471Z,63.36
2022-10-31T12:34:48.706Z,63.13
2022-10-31T12:37:51.375Z,63.68
2022-10-31T12:40:51.453Z,63.09
2022-10-31T12:43:36.864Z,62.20
2022-10-31T12:46:11.806Z,62.22
2022-10-31T12:49:13.148Z,62.56
2022-10-31T12:52:32.366Z,62.13
2022-10-31T12:55:21.494Z,62.42
2022-10-31T12:58:13.409Z,61.74
2022-10-31T13:00:45.758Z,61.43
2022-10-31T13:03:31.556Z,61.42
2022-10-31T13:06:09.951Z,60.80
2022-10-31T13:08:48.582Z,60.30
2022-10-31T13:11:41.562Z,60.32
2022-10-31T13:14:24.791Z,60.20
2022-10-31T13:16:53.176Z,59.59
2022-10-31T13:19:39.763Z,58.89
2022-10-31T13:22:10.929Z,58.21
2022-10-31T13:25:19.293Z,58.63
2022-10-31T13:27:54.493Z,58.63
2022-10-31T13:30:25.725Z,58.57
2022-10-31T13:33:14.020Z,58.43
2022-10-31T13:35:56.051Z,58.01
2022-10-31T13:38:42.884Z,58.04
2022-10-31T13:42:04.106Z,57.72
2022-10-31T13:44:37.409Z,57.45
2022-10-31T13:47:04.917Z,56.53
2022-10-31T13:49:32.128Z,55.78
2022-10-31T13:52:14.254Z,55.42
2022-10-31T13:54:52.752Z,55.29
2022-10-31T13:57:34.473Z,55.19
2022-10-31T14:00:23.836Z,55.53
2022-10-31T14:02:55.452Z,55.69
2022-10-31T14:05:34.919Z,55.86
2022-10-31T14:08:05.330Z,54.91
2022-10-31T14:10:38.029Z,54.73
2022-10-31T14:13:22.743Z,54.83
2022-10-31T14:16:01.053Z,54.47
2022-10-31T14:18:45.195Z,54.94
2022-10-31T14:21:24.035Z,54.74
2022-10-31T14:23:55.265Z,54.96
2022-10-31T14:26:29.692Z,54.46
2022-10-31T14:29:17.384Z,54.69
2022-10-31T14:31:52.707Z,54.42
2022-10-31T14:34:37.748Z,54.60
2022-10-31T14:37:32.300Z,53.63
2022-10-31T14:40:33.535Z,53.89
2022-10-31T14:43:40.818Z,54.74
2022-10-31T14:46:56.400Z,55.29
2022-10-31T14:49:39.949Z,56.01
2022-10-31T14:52:09.732Z,55.99
2022-10-31T14:54:44.724Z,55.99
2022-10-31T14:57:28.178Z,55.94
2022-10-31T15:00:03.875Z,56.84
2022-10-31T15:02:38.659Z,56.63
2022-10-31T15:05:14.034Z,57.68
2022-10-31T15:07:53.064Z,58.17
2022-10-31T15:10:34.351Z,58.64
2022-10-31T15:13:16.831Z,58.96
2022-10-31T15:15:48.199Z,59.79
2022-10-31T15:18:27.372Z,59.92
2022-10-31T15:20:56.885Z,60.57
2022-10-31T15:23:30.148Z,60.95
2022-10-31T15:26:02.727Z,61.67
2022-10-31T15:28:30.227Z,62.09
2022-10-31T15:31:01.310Z,62.02
2022-10-31T15:33:46.963Z,63.03
2022-10-31T15:36:28.516Z,62.81
2022-10-31T15:39:00.821Z,63.38
2022-10-31T15:41:54.264Z,63.47
2022-10-31T15:44:34.454Z,63.93
2022-10-31T15:47:06.349Z,63.54
2022-10-31T15:49:54.806Z,63.25
2022-10-31T15:52:45.302Z,63.34
2022-10-31T15:55:30.875Z,63.85
2022-10-31T15:58:02.924Z,64.46
2022-10-31T16:00:35.792Z,64.21
2022-10-31T16:03:15.116Z,63.29
2022-10-31T16:05:47.634Z,63.72
2022-10-31T16:08:29.952Z,63.44
2022-10-31T16:11:00.405Z,64.15
2022-10-31T16:13:32.246Z,63.75
2022-10-31T16:16:32.738Z,63.55
2022-10-31T16:18:54.482Z,64.16
2022-10-31T16:21:37.137Z,64.64
2022-10-31T16:24:33.232Z,64.81
2022-10-31T16:27:08.332Z,64.81
2022-10-31T16:29:44.224Z,65.39
2022-10-31T16:32:54.865Z,65.18
2022-10-31T16:35:29.422Z,65.53
2022-10-31T16:37:56.356Z,66.21
2022-10-31T16:40:24.808Z,65.68
2022-10-31T16:42:52.575Z,65.72
2022-10-31T16:45:26.733Z,65.88
2022-10-31T16:47:54.166Z,65.92
2022-10-31T16:50:23.573Z,66.85
2022-10-31T16:53:12.938Z,66.90
2022-10-31T16:55:54.518Z,67.03
2022-10-31T16:58:35.632Z,66.92
2022-10-31T17:01:06.255Z,66.59
2022-10-31T17:03:33.578Z,67.23
2022-10-31T17:06:00.661Z,66.83
2022-10-31T17:08:27.604Z,66.72
2022-10-31T17:10:57.411Z,67.05
2022-10-31T17:13:28.379Z,67.02
2022-10-31T17:15:58.758Z,67.15
2022-10-31T17:18:27.793Z,66.88
2022-10-31T17:21:01.811Z,67.56
2022-10-31T17:23:29.817Z,67.21
2022-10-31T17:25:57.720Z,67.67
2022-10-31T17:28:28.878Z,67.86
2022-10-31T17:30:58.468Z,67.30
2022-10-31T17:33:25.916Z,68.07
2022-10-31T17:35:53.741Z,68.57
2022-10-31T17:38:20.932Z,67.76
2022-10-31T17:43:20.482Z,68.34
2022-10-31T17:45:47.819Z,68.88
2022-10-31T17:48:14.741Z,69.09
2022-10-31T17:50:41.653Z,69.29
2022-10-31T17:53:09.000Z,69.07
2022-10-31T17:55:37.457Z,69.21
2022-10-31T17:58:05.537Z,69.02
2022-10-31T18:00:33.653Z,70.10
2022-10-31T18:03:04.381Z,69.82
2022-10-31T18:05:32.728Z,70.15
2022-10-31T18:08:03.856Z,69.61
2022-10-31T18:10:32.440Z,70.25
2022-10-31T18:12:59.768Z,69.94
2022-10-31T18:15:27.069Z,70.23
2022-10-31T18:17:54.713Z,70.40
2022-10-31T18:20:23.783Z,70.24
2022-10-31T18:22:50.836Z,70.33
2022-10-31T18:25:17.895Z,70.06
2022-10-31T18:27:44.917Z,70.43
2022-10-31T18:30:13.222Z,70.92
2022-10-31T18:32:41.595Z,70.67
2022-10-31T18:35:10.446Z,70.89
2022-10-31T18:37:38.490Z,70.87
2022-10-31T18:40:07.011Z,71.18
2022-10-31T18:42:33.896Z,71.15
2022-10-31T18:45:11.198Z,70.80
2022-10-31T18:47:44.706Z,71.15
2022-10-31T18:50:12.471Z,71.06
2022-10-31T18:52:39.530Z,71.04
2022-10-31T18:55:07.829Z,71.44
2022-10-31T18:57:35.038Z,71.04
2022-10-31T19:00:03.816Z,71.23
2022-10-31T19:02:30.796Z,71.90
2022-10-31T19:04:57.747Z,71.21
2022-10-31T19:07:24.654Z,71.37
2022-10-31T19:09:52.408Z,71.17
2022-10-31T19:12:19.494Z,71.98
2022-10-31T19:14:46.447Z,71.98
2022-10-31T19:17:13.490Z,71.88
2022-10-31T19:19:40.582Z,72.26
2022-10-31T19:22:08.470Z,72.05
2022-10-31T19:24:35.819Z,72.20
2022-10-31T19:27:04.001Z,72.64
2022-10-31T19:29:31.054Z,72.53
2022-10-31T19:31:58.002Z,72.38
2022-10-31T19:34:24.949Z,72.60
2022-10-31T19:36:53.175Z,72.59
2022-10-31T19:39:20.239Z,72.71
2022-10-31T19:41:47.298Z,72.95
2022-10-31T19:44:16.134Z,72.48
2022-10-31T19:46:52.632Z,72.35
2022-10-31T19:49:20.917Z,72.07
2022-10-31T19:51:47.857Z,72.23
2022-10-31T19:54:15.470Z,72.00
2022-10-31T19:56:42.849Z,72.24
2022-10-31T19:59:09.927Z,72.25
2022-10-31T20:01:38.539Z,71.86
2022-10-31T20:04:06.942Z,72.05
2022-10-31T20:06:40.605Z,72.16
2022-10-31T20:09:13.659Z,71.88
2022-10-31T20:11:43.072Z,71.81
2022-10-31T20:14:14.102Z,72.67
2022-10-31T20:16:41.873Z,72.75
2022-10-31T20:19:09.471Z,73.21
2022-10-31T20:21:39.689Z,72.97
2022-10-31T20:24:09.825Z,73.18
2022-10-31T20:26:39.300Z,72.65
2022-10-31T20:29:07.147Z,72.83
2022-10-31T20:31:46.302Z,72.50
2022-10-31T20:34:14.919Z,73.10
2022-10-31T20:36:42.147Z,73.30
2022-10-31T20:39:09.749Z,73.17
2022-10-31T20:41:38.531Z,72.46
2022-10-31T20:44:06.507Z,73.25
2022-10-31T20:46:34.015Z,72.75
2022-10-31T20:49:01.255Z,73.39
2022-10-31T20:51:29.063Z,73.04
2022-10-31T20:53:58.039Z,73.51
2022-10-31T20:56:27.333Z,72.72
2022-10-31T20:58:56.216Z,73.51
2022-10-31T21:01:30.198Z,73.26
2022-10-31T21:03:59.201Z,73.19
2022-10-31T21:06:27.155Z,73.14
2022-10-31T21:08:55.256Z,73.35
2022-10-31T21:11:25.871Z,72.99
2022-10-31T21:13:53.814Z,73.43
2022-10-31T21:16:28.655Z,73.00
2022-10-31T21:18:56.175Z,72.45
2022-10-31T21:21:32.402Z,73.12
2022-10-31T21:24:12.085Z,73.45
2022-10-31T21:26:47.542Z,73.50
2022-10-31T21:29:16.229Z,73.58
2022-10-31T21:31:44.842Z,73.03
2022-10-31T21:34:12.174Z,73.60
2022-10-31T21:36:39.709Z,73.71
2022-10-31T21:39:09.373Z,74.39
2022-10-31T21:41:55.674Z,74.27
2022-10-31T21:44:23.399Z,74.63
2022-10-31T21:46:50.618Z,74.39
2022-10-31T21:49:17.940Z,74.69
2022-10-31T21:51:46.838Z,74.63
2022-10-31T21:54:31.483Z,74.63
2022-10-31T21:57:00.647Z,74.00
2022-10-31T21:59:30.176Z,74.34
2022-10-31T22:01:59.756Z,74.68
2022-10-31T22:04:27.821Z,74.49
2022-10-31T22:06:54.884Z,74.75
2022-10-31T22:09:23.372Z,74.64
2022-10-31T22:11:50.708Z,74.61
2022-10-31T22:14:17.700Z,74.28
2022-10-31T22:16:45.357Z,74.47
2022-10-31T22:19:14.640Z,74.21
2022-10-31T22:21:46.597Z,74.32
2022-10-31T22:24:14.704Z,74.26
2022-10-31T22:26:42.107Z,74.64
2022-10-31T22:29:18.435Z,74.00
2022-10-31T22:31:52.034Z,74.75
2022-10-31T22:34:22.466Z,74.67
2022-10-31T22:36:49.452Z,74.50
2022-10-31T22:39:16.495Z,74.51
2022-10-31T22:41:43.445Z,74.12
2022-10-31T22:44:11.299Z,74.93
2022-10-31T22:46:40.281Z,74.61
2022-10-31T22:49:14.659Z,74.30
2022-10-31T22:51:43.047Z,74.89
2022-10-31T22:54:18.840Z,74.69
2022-10-31T22:56:47.026Z,74.56
2022-10-31T22:59:15.678Z,75.08
2022-10-31T23:01:45.599Z,74.85
2022-10-31T23:04:14.874Z,74.45
2022-10-31T23:06:42.009Z,74.75
2022-10-31T23:09:14.924Z,74.39
2022-10-31T23:11:42.607Z,75.01
2022-10-31T23:14:20.799Z,74.60
2022-10-31T23:16:50.864Z,74.80
2022-10-31T23:19:22.172Z,74.53
2022-10-31T23:22:02.503Z,75.09
2022-10-31T23:24:43.089Z,74.59
2022-10-31T23:27:22.508Z,74.71
2022-10-31T23:29:58.122Z,75.11
2022-10-31T23:32:37.422Z,74.66
2022-10-31T23:35:08.120Z,74.73
2022-10-31T23:37:38.504Z,75.33
2022-10-31T23:40:08.640Z,75.53
2022-10-31T23:42:35.786Z,74.65
2022-10-31T23:45:03.324Z,75.43
2022-10-31T23:47:30.279Z,74.71
2022-10-31T23:49:57.201Z,74.87
2022-10-31T23:52:24.126Z,75.11
2022-10-31T23:54:51.147Z,74.17
2022-10-31T23:57:18.196Z,74.50
2022-10-31T23:59:45.281Z,74.77
